createdAt,value
2022-08-11T00:00:43.612Z,24.48
2022-08-11T00:02:53.094Z,24.49
2022-08-11T00:04:57.834Z,24.50
2022-08-11T00:07:03.834Z,24.51
2022-08-11T00:09:10.132Z,24.48
2022-08-11T00:11:13.568Z,24.42
2022-08-11T00:13:16.861Z,24.45
2022-08-11T00:15:19.396Z,24.40
2022-08-11T00:17:28.461Z,24.38
2022-08-11T00:20:12.507Z,24.34
2022-08-11T00:22:04.574Z,24.30
2022-08-11T00:24:08.919Z,24.24
2022-08-11T00:26:12.444Z,24.18
2022-08-11T00:28:24.467Z,24.14
2022-08-11T00:30:40.036Z,24.16
2022-08-11T00:32:45.487Z,24.09
2022-08-11T00:34:48.195Z,24.04
2022-08-11T00:36:57.906Z,24.03
2022-08-11T00:39:05.352Z,23.99
2022-08-11T00:41:29.362Z,24.01
2022-08-11T00:43:50.210Z,23.92
2022-08-11T00:46:23.505Z,23.87
2022-08-11T00:49:16.184Z,23.86
2022-08-11T00:52:06.811Z,23.80
2022-08-11T00:54:53.631Z,23.79
2022-08-11T00:57:37.021Z,23.80
2022-08-11T01:00:22.943Z,23.68
2022-08-11T01:03:04.137Z,23.67
2022-08-11T01:05:33.680Z,23.60
2022-08-11T01:08:02.529Z,23.60
2022-08-11T01:10:14.642Z,23.63
2022-08-11T01:12:45.946Z,23.62
2022-08-11T01:15:15.839Z,23.52
2022-08-11T01:17:26.815Z,23.44
2022-08-11T01:20:46.415Z,23.48
2022-08-11T01:23:24.967Z,23.43
2022-08-11T01:25:57.699Z,23.44
2022-08-11T01:28:15.322Z,23.37
2022-08-11T01:30:44.743Z,23.35
2022-08-11T01:33:24.082Z,23.38
2022-08-11T01:35:53.595Z,23.36
2022-08-11T01:38:36.595Z,23.36
2022-08-11T01:40:41.298Z,23.33
2022-08-11T01:43:43.739Z,23.33
2022-08-11T01:46:08.642Z,23.29
2022-08-11T01:48:41.075Z,23.29
2022-08-11T01:51:17.513Z,23.20
2022-08-11T01:53:40.044Z,23.20
2022-08-11T01:56:09.189Z,23.19
2022-08-11T01:58:20.680Z,23.10
2022-08-11T02:01:01.650Z,23.12
2022-08-11T02:03:37.810Z,23.10
2022-08-11T02:06:30.411Z,23.12
2022-08-11T02:08:56.157Z,23.12
2022-08-11T02:11:28.068Z,23.08
2022-08-11T02:13:42.541Z,23.04
2022-08-11T02:15:52.032Z,23.04
2022-08-11T02:18:24.456Z,23.04
2022-08-11T02:21:05.074Z,22.95
2022-08-11T02:24:04.489Z,22.96
2022-08-11T02:26:14.857Z,22.93
2022-08-11T02:28:16.787Z,22.95
2022-08-11T02:30:25.992Z,22.93
2022-08-11T02:33:16.593Z,22.90
2022-08-11T02:35:29.290Z,22.84
2022-08-11T02:37:31.417Z,22.85
2022-08-11T02:39:47.534Z,22.86
2022-08-11T02:42:33.443Z,22.86
2022-08-11T02:45:20.128Z,22.88
2022-08-11T02:48:10.516Z,22.86
2022-08-11T02:50:27.984Z,22.84
2022-08-11T02:52:51.754Z,22.80
2022-08-11T02:55:12.204Z,22.81
2022-08-11T02:57:43.590Z,22.78
2022-08-11T03:00:01.030Z,22.77
2022-08-11T03:02:43.376Z,22.76
2022-08-11T03:05:17.262Z,22.72
2022-08-11T03:07:33.847Z,22.69
2022-08-11T03:09:38.976Z,22.70
2022-08-11T03:12:43.794Z,22.68
2022-08-11T03:15:13.554Z,22.64
2022-08-11T03:17:54.190Z,22.65
2022-08-11T03:20:08.310Z,22.63
2022-08-11T03:22:17.791Z,22.59
2022-08-11T03:24:29.611Z,22.53
2022-08-11T03:26:34.460Z,22.47
2022-08-11T03:28:53.804Z,22.49
2022-08-11T03:31:27.137Z,22.48
2022-08-11T03:33:53.876Z,22.43
2022-08-11T03:36:27.360Z,22.40
2022-08-11T03:38:44.847Z,22.31
2022-08-11T03:42:04.418Z,22.33
2022-08-11T03:44:17.803Z,22.31
2022-08-11T03:46:48.397Z,22.30
2022-08-11T03:49:15.456Z,22.29
2022-08-11T03:51:27.538Z,22.26
2022-08-11T03:54:24.294Z,22.19
2022-08-11T03:57:03.581Z,22.19
2022-08-11T03:59:17.424Z,22.16
2022-08-11T04:01:29.714Z,22.16
2022-08-11T04:04:08.849Z,22.14
2022-08-11T04:06:34.476Z,22.16
2022-08-11T04:09:13.516Z,22.14
2022-08-11T04:11:31.488Z,22.14
2022-08-11T04:13:33.274Z,22.13
2022-08-11T04:16:11.992Z,22.10
2022-08-11T04:18:23.527Z,22.10
2022-08-11T04:20:44.478Z,22.07
2022-08-11T04:23:07.816Z,22.02
2022-08-11T04:25:16.335Z,22.04
2022-08-11T04:27:23.735Z,22.05
2022-08-11T04:30:03.518Z,22.01
2022-08-11T04:32:21.494Z,22.06
2022-08-11T04:34:44.657Z,21.99
2022-08-11T04:37:27.021Z,21.98
2022-08-11T04:39:49.663Z,22.00
2022-08-11T04:42:31.517Z,21.96
2022-08-11T04:45:14.974Z,21.96
2022-08-11T04:48:04.231Z,21.94
2022-08-11T04:50:42.098Z,21.94
2022-08-11T04:53:21.055Z,21.93
2022-08-11T04:56:23.209Z,21.91
2022-08-11T04:59:02.207Z,21.91
2022-08-11T05:01:42.750Z,21.91
2022-08-11T05:04:40.344Z,21.89
2022-08-11T05:07:11.286Z,21.87
2022-08-11T05:09:24.755Z,21.85
2022-08-11T05:12:04.302Z,21.80
2022-08-11T05:14:30.321Z,21.80
2022-08-11T05:17:00.094Z,21.77
2022-08-11T05:19:22.809Z,21.74
2022-08-11T05:21:45.055Z,21.81
2022-08-11T05:24:11.545Z,21.83
2022-08-11T05:26:46.632Z,21.82
2022-08-11T05:29:19.737Z,21.77
2022-08-11T05:31:51.009Z,21.72
2022-08-11T05:34:18.371Z,21.70
2022-08-11T05:36:37.486Z,21.73
2022-08-11T05:38:58.735Z,21.71
2022-08-11T05:41:20.113Z,21.68
2022-08-11T05:44:20.056Z,21.69
2022-08-11T05:46:25.163Z,21.72
2022-08-11T05:48:52.494Z,21.73
2022-08-11T05:51:16.457Z,21.69
2022-08-11T05:53:46.266Z,21.71
2022-08-11T05:56:10.399Z,21.73
2022-08-11T05:58:13.561Z,21.71
2022-08-11T06:00:15.805Z,21.76
2022-08-11T06:02:18.230Z,21.76
2022-08-11T06:04:24.619Z,21.77
2022-08-11T06:06:29.262Z,21.87
2022-08-11T06:08:37.010Z,21.77
2022-08-11T06:10:41.493Z,21.79
2022-08-11T06:12:43.608Z,21.76
2022-08-11T06:14:46.535Z,21.74
2022-08-11T06:16:50.271Z,21.77
2022-08-11T06:18:52.285Z,21.82
2022-08-11T06:20:58.310Z,21.77
2022-08-11T06:23:03.875Z,21.82
2022-08-11T06:25:12.537Z,21.83
2022-08-11T06:27:21.326Z,21.85
2022-08-11T06:29:37.980Z,21.86
2022-08-11T06:31:59.648Z,21.88
2022-08-11T06:34:41.140Z,21.87
2022-08-11T06:37:00.891Z,21.95
2022-08-11T06:39:26.739Z,21.87
2022-08-11T06:41:44.620Z,21.93
2022-08-11T06:44:14.454Z,21.88
2022-08-11T06:46:24.753Z,21.94
2022-08-11T06:48:33.739Z,21.96
2022-08-11T06:50:54.879Z,22.01
2022-08-11T06:52:58.143Z,22.03
2022-08-11T06:55:55.818Z,22.12
2022-08-11T06:57:54.187Z,22.15
2022-08-11T07:00:15.453Z,22.18
2022-08-11T07:02:22.504Z,22.24
2022-08-11T07:04:43.325Z,22.25
2022-08-11T07:07:23.868Z,22.30
2022-08-11T07:09:43.797Z,22.33
2022-08-11T07:12:21.141Z,22.35
2022-08-11T07:14:46.545Z,22.34
2022-08-11T07:16:51.801Z,22.41
2022-08-11T07:19:17.836Z,22.36
2022-08-11T07:22:02.868Z,22.48
2022-08-11T07:24:34.497Z,22.45
2022-08-11T07:27:14.314Z,22.58
2022-08-11T07:29:16.666Z,22.53
2022-08-11T07:31:42.640Z,22.62
2022-08-11T07:34:05.566Z,22.63
2022-08-11T07:36:13.943Z,22.68
2022-08-11T07:38:25.340Z,22.68
2022-08-11T07:40:29.046Z,22.76
2022-08-11T07:42:36.422Z,22.84
2022-08-11T07:44:59.897Z,22.88
2022-08-11T07:47:21.055Z,22.91
2022-08-11T07:49:41.242Z,22.99
2022-08-11T07:52:02.689Z,22.97
2022-08-11T07:54:16.294Z,23.07
2022-08-11T07:56:28.112Z,23.04
2022-08-11T07:59:06.260Z,23.15
2022-08-11T08:01:30.499Z,23.22
2022-08-11T08:03:54.800Z,23.26
2022-08-11T08:06:35.658Z,23.32
2022-08-11T08:09:00.723Z,23.39
2022-08-11T08:11:27.568Z,23.40
2022-08-11T08:13:51.203Z,23.50
2022-08-11T08:16:12.435Z,23.54
2022-08-11T08:18:26.814Z,23.56
2022-08-11T08:20:34.599Z,23.59
2022-08-11T08:22:39.505Z,23.67
2022-08-11T08:24:43.003Z,23.70
2022-08-11T08:27:03.811Z,23.78
2022-08-11T08:29:25.906Z,23.83
2022-08-11T08:31:27.835Z,23.88
2022-08-11T08:33:32.170Z,23.92
2022-08-11T08:35:36.742Z,23.97
2022-08-11T08:37:58.101Z,24.04
2022-08-11T08:40:00.237Z,24.11
2022-08-11T08:42:07.186Z,24.17
2022-08-11T08:44:37.324Z,24.20
2022-08-11T08:46:42.703Z,24.28
2022-08-11T08:48:47.195Z,24.34
2022-08-11T08:51:12.573Z,24.39
2022-08-11T08:53:18.355Z,24.50
2022-08-11T08:55:21.491Z,24.51
2022-08-11T08:57:24.337Z,24.60
2022-08-11T08:59:47.971Z,24.64
2022-08-11T09:02:01.606Z,24.72
2022-08-11T09:04:11.749Z,24.81
2022-08-11T09:06:17.324Z,24.90
2022-08-11T09:08:19.535Z,24.91
2022-08-11T09:10:21.722Z,24.99
2022-08-11T09:12:36.039Z,25.06
2022-08-11T09:15:11.118Z,25.19
2022-08-11T09:17:14.150Z,25.27
2022-08-11T09:19:18.168Z,25.40
2022-08-11T09:21:49.286Z,25.46
2022-08-11T09:24:10.107Z,25.58
2022-08-11T09:26:35.496Z,25.67
2022-08-11T09:28:37.640Z,25.83
2022-08-11T09:30:42.806Z,25.97
2022-08-11T09:32:44.722Z,26.05
2022-08-11T09:34:47.441Z,26.15
2022-08-11T09:37:09.282Z,26.28
2022-08-11T09:39:31.612Z,26.42
2022-08-11T09:42:01.217Z,26.55
2022-08-11T09:44:15.633Z,26.71
2022-08-11T09:46:27.393Z,26.89
2022-08-11T09:48:45.872Z,27.01
2022-08-11T09:50:56.058Z,27.16
2022-08-11T09:53:34.818Z,27.29
2022-08-11T09:55:20.186Z,27.48
2022-08-11T09:57:41.506Z,27.64
2022-08-11T09:59:43.382Z,27.80
2022-08-11T10:01:52.495Z,27.96
2022-08-11T10:04:01.834Z,28.14
2022-08-11T10:06:34.101Z,28.29
2022-08-11T10:08:39.852Z,28.49
2022-08-11T10:10:42.106Z,28.58
2022-08-11T10:12:56.507Z,28.68
2022-08-11T10:15:22.908Z,28.84
2022-08-11T10:17:25.089Z,29.06
2022-08-11T10:19:27.448Z,29.17
2022-08-11T10:21:39.670Z,29.34
2022-08-11T10:24:05.559Z,29.49
2022-08-11T10:26:26.733Z,29.69
2022-08-11T10:28:50.090Z,29.79
2022-08-11T10:31:17.786Z,29.87
2022-08-11T10:33:45.717Z,29.99
2022-08-11T10:36:01.976Z,30.14
2022-08-11T10:38:08.911Z,30.30
2022-08-11T10:40:18.388Z,30.43
2022-08-11T10:42:57.284Z,30.54
2022-08-11T10:45:04.233Z,30.63
2022-08-11T10:47:25.784Z,30.78
2022-08-11T10:49:28.177Z,30.91
2022-08-11T10:51:52.086Z,31.10
2022-08-11T10:54:14.326Z,31.21
2022-08-11T10:56:36.856Z,31.33
2022-08-11T10:58:49.227Z,31.44
2022-08-11T11:00:56.990Z,31.61
2022-08-11T11:03:23.376Z,31.74
2022-08-11T11:05:30.714Z,31.81
2022-08-11T11:07:48.462Z,31.93
2022-08-11T11:10:01.757Z,32.07
2022-08-11T11:12:25.121Z,32.14
2022-08-11T11:14:58.307Z,32.15
2022-08-11T11:17:14.342Z,32.27
2022-08-11T11:19:20.886Z,32.37
2022-08-11T11:21:25.143Z,32.42
2022-08-11T11:23:48.755Z,32.53
2022-08-11T11:26:14.965Z,32.72
2022-08-11T11:28:35.092Z,32.81
2022-08-11T11:31:11.652Z,32.94
2022-08-11T11:34:06.580Z,32.95
2022-08-11T11:36:17.313Z,32.95
2022-08-11T11:38:19.473Z,33.11
2022-08-11T11:40:28.678Z,33.25
2022-08-11T11:42:33.834Z,33.22
2022-08-11T11:44:38.226Z,33.35
2022-08-11T11:46:41.613Z,33.40
2022-08-11T11:48:43.914Z,33.52
2022-08-11T11:50:45.881Z,33.55
2022-08-11T11:52:47.727Z,33.67
2022-08-11T11:54:53.445Z,33.72
2022-08-11T11:56:57.659Z,33.75
2022-08-11T11:59:18.274Z,33.86
2022-08-11T12:01:24.214Z,33.91
2022-08-11T12:03:26.833Z,33.98
2022-08-11T12:05:29.001Z,34.07
2022-08-11T12:07:56.996Z,34.20
2022-08-11T12:10:12.514Z,34.33
2022-08-11T12:12:34.953Z,34.44
2022-08-11T12:14:37.299Z,34.41
2022-08-11T12:16:44.680Z,34.49
2022-08-11T12:18:49.581Z,34.62
2022-08-11T12:20:53.906Z,34.73
2022-08-11T12:23:16.220Z,34.77
2022-08-11T12:25:39.854Z,34.85
2022-08-11T12:27:42.336Z,34.98
2022-08-11T12:29:50.110Z,35.03
2022-08-11T12:31:58.756Z,35.06
2022-08-11T12:34:09.220Z,35.06
2022-08-11T12:36:15.939Z,35.11
2022-08-11T12:38:26.063Z,35.09
2022-08-11T12:41:15.153Z,35.03
2022-08-11T12:43:40.821Z,35.11
2022-08-11T12:45:44.127Z,35.21
2022-08-11T12:48:59.109Z,35.20
2022-08-11T12:50:52.590Z,35.17
2022-08-11T12:52:57.109Z,35.06
2022-08-11T12:55:14.101Z,35.13
2022-08-11T12:57:47.621Z,35.26
2022-08-11T13:00:08.816Z,35.42
2022-08-11T13:02:35.708Z,35.41
2022-08-11T13:04:56.243Z,35.60
2022-08-11T13:06:59.109Z,35.68
2022-08-11T13:09:01.656Z,35.76
2022-08-11T13:11:23.263Z,35.55
2022-08-11T13:13:52.935Z,35.67
2022-08-11T13:15:49.971Z,35.78
2022-08-11T13:17:54.118Z,35.92
2022-08-11T13:19:58.838Z,35.83
2022-08-11T13:22:02.556Z,35.95
2022-08-11T13:24:04.748Z,35.86
2022-08-11T13:26:08.973Z,35.87
2022-08-11T13:28:12.724Z,35.84
2022-08-11T13:30:40.310Z,35.99
2022-08-11T13:32:45.842Z,36.11
2022-08-11T13:34:48.253Z,36.08
2022-08-11T13:36:55.331Z,36.20
2022-08-11T13:39:01.123Z,36.17
2022-08-11T13:41:23.191Z,36.37
2022-08-11T13:43:25.701Z,36.34
2022-08-11T13:45:28.111Z,36.49
2022-08-11T13:47:30.381Z,36.53
2022-08-11T13:49:35.678Z,36.57
2022-08-11T13:51:41.149Z,36.39
2022-08-11T13:53:43.800Z,36.58
2022-08-11T13:55:51.463Z,36.54
2022-08-11T13:58:09.072Z,36.49
2022-08-11T14:00:25.094Z,36.66
2022-08-11T14:02:31.104Z,36.72
2022-08-11T14:04:43.876Z,36.80
2022-08-11T14:06:51.103Z,36.47
2022-08-11T14:08:55.137Z,36.46
2022-08-11T14:12:21.618Z,36.49
2022-08-11T14:13:48.072Z,36.62
2022-08-11T14:15:50.759Z,36.25
2022-08-11T14:17:57.254Z,36.48
2022-08-11T14:20:38.677Z,36.22
2022-08-11T14:22:28.035Z,36.30
2022-08-11T14:24:30.241Z,35.94
2022-08-11T14:26:39.117Z,35.94
2022-08-11T14:28:45.127Z,35.76
2022-08-11T14:31:00.462Z,35.75
2022-08-11T14:33:17.356Z,35.75
2022-08-11T14:35:22.545Z,36.05
2022-08-11T14:37:27.810Z,36.14
2022-08-11T14:39:36.007Z,36.13
2022-08-11T14:42:09.963Z,36.31
2022-08-11T14:44:33.980Z,36.58
2022-08-11T14:46:55.589Z,36.94
2022-08-11T14:48:58.062Z,36.83
2022-08-11T14:51:00.020Z,36.72
2022-08-11T14:53:11.290Z,36.26
2022-08-11T14:55:41.297Z,36.28
2022-08-11T14:58:04.695Z,36.15
2022-08-11T15:00:09.050Z,36.18
2022-08-11T15:02:31.349Z,36.25
2022-08-11T15:04:36.533Z,36.39
2022-08-11T15:06:40.550Z,36.36
2022-08-11T15:08:54.826Z,36.31
2022-08-11T15:10:56.605Z,36.42
2022-08-11T15:13:00.426Z,36.48
2022-08-11T15:15:25.145Z,36.29
2022-08-11T15:17:29.457Z,36.42
2022-08-11T15:20:05.251Z,35.95
2022-08-11T15:22:28.005Z,35.95
2022-08-11T15:24:31.102Z,36.14
2022-08-11T15:26:58.870Z,36.22
2022-08-11T15:29:23.080Z,36.18
2022-08-11T15:31:49.432Z,36.19
2022-08-11T15:34:14.608Z,36.38
2022-08-11T15:36:39.771Z,36.05
2022-08-11T15:38:54.990Z,36.12
2022-08-11T15:41:16.867Z,35.98
2022-08-11T15:43:44.797Z,36.23
2022-08-11T15:45:52.090Z,36.06
2022-08-11T15:48:05.567Z,36.18
2022-08-11T15:50:14.113Z,35.96
2022-08-11T15:52:23.111Z,35.89
2022-08-11T15:54:31.216Z,35.80
2022-08-11T15:56:35.365Z,35.61
2022-08-11T15:59:40.897Z,35.12
2022-08-11T16:01:44.262Z,35.11
2022-08-11T16:04:12.603Z,35.07
2022-08-11T16:06:14.712Z,35.18
2022-08-11T16:08:29.527Z,35.37
2022-08-11T16:10:36.537Z,35.22
2022-08-11T16:13:06.023Z,35.09
2022-08-11T16:15:34.181Z,35.08
2022-08-11T16:17:41.656Z,35.15
2022-08-11T16:19:46.004Z,35.18
2022-08-11T16:21:50.790Z,34.85
2022-08-11T16:23:55.465Z,34.79
2022-08-11T16:27:07.218Z,34.74
2022-08-11T16:28:22.619Z,34.69
2022-08-11T16:30:26.072Z,34.55
2022-08-11T16:32:28.589Z,34.59
2022-08-11T16:34:49.794Z,34.40
2022-08-11T16:37:10.103Z,34.39
2022-08-11T16:39:13.665Z,34.31
2022-08-11T16:41:41.359Z,34.29
2022-08-11T16:44:07.812Z,34.20
2022-08-11T16:46:31.330Z,34.01
2022-08-11T16:48:38.618Z,33.67
2022-08-11T16:50:42.107Z,33.84
2022-08-11T16:52:43.938Z,33.79
2022-08-11T16:54:47.780Z,33.50
2022-08-11T16:56:52.016Z,33.31
2022-08-11T16:59:17.136Z,33.21
2022-08-11T17:01:21.694Z,33.30
2022-08-11T17:03:42.336Z,33.26
2022-08-11T17:06:08.805Z,33.12
2022-08-11T17:08:29.186Z,32.98
2022-08-11T17:10:56.677Z,32.99
2022-08-11T17:13:09.414Z,32.84
2022-08-11T17:15:38.350Z,32.87
2022-08-11T17:17:41.094Z,32.80
2022-08-11T17:20:41.623Z,32.76
2022-08-11T17:22:29.881Z,32.79
2022-08-11T17:24:37.238Z,32.67
2022-08-11T17:26:55.760Z,32.42
2022-08-11T17:29:01.140Z,32.41
2022-08-11T17:31:23.065Z,32.29
2022-08-11T17:33:43.916Z,32.28
2022-08-11T17:35:45.740Z,32.33
2022-08-11T17:37:49.160Z,32.07
2022-08-11T17:39:53.605Z,31.97
2022-08-11T17:42:15.064Z,32.03
2022-08-11T17:44:35.591Z,32.08
2022-08-11T17:47:01.075Z,32.17
2022-08-11T17:49:10.220Z,32.14
2022-08-11T17:51:34.541Z,32.17
2022-08-11T17:54:10.045Z,32.17
2022-08-11T17:56:44.237Z,32.04
2022-08-11T17:59:07.289Z,31.94
2022-08-11T18:01:11.403Z,31.91
2022-08-11T18:03:29.767Z,31.85
2022-08-11T18:05:34.624Z,31.90
2022-08-11T18:07:56.843Z,31.77
2022-08-11T18:10:17.430Z,31.74
2022-08-11T18:12:37.859Z,31.66
2022-08-11T18:14:58.778Z,31.68
2022-08-11T18:17:19.300Z,31.67
2022-08-11T18:19:39.240Z,31.53
2022-08-11T18:22:14.338Z,31.46
2022-08-11T18:24:38.951Z,31.43
2022-08-11T18:27:03.246Z,31.33
2022-08-11T18:29:25.914Z,31.22
2022-08-11T18:31:46.826Z,31.10
2022-08-11T18:34:16.355Z,30.94
2022-08-11T18:36:42.431Z,31.00
2022-08-11T18:39:06.701Z,30.94
2022-08-11T18:41:29.607Z,31.01
2022-08-11T18:43:53.533Z,30.84
2022-08-11T18:46:20.125Z,30.93
2022-08-11T18:48:42.603Z,30.88
2022-08-11T18:51:29.989Z,30.82
2022-08-11T18:53:47.531Z,30.72
2022-08-11T18:56:08.515Z,30.72
2022-08-11T18:58:33.339Z,30.61
2022-08-11T19:00:56.414Z,30.54
2022-08-11T19:03:18.643Z,30.49
2022-08-11T19:06:32.026Z,30.38
2022-08-11T19:08:22.938Z,30.26
2022-08-11T19:10:43.972Z,30.17
2022-08-11T19:13:06.611Z,30.03
2022-08-11T19:15:31.707Z,29.85
2022-08-11T19:17:54.804Z,29.89
2022-08-11T19:20:17.362Z,29.83
2022-08-11T19:22:40.052Z,29.82
2022-08-11T19:25:10.379Z,29.74
2022-08-11T19:27:32.758Z,29.74
2022-08-11T19:30:07.785Z,29.72
2022-08-11T19:32:35.728Z,29.68
2022-08-11T19:34:57.522Z,29.70
2022-08-11T19:37:24.067Z,29.61
2022-08-11T19:39:47.375Z,29.59
2022-08-11T19:42:08.743Z,29.55
2022-08-11T19:44:30.858Z,29.55
2022-08-11T19:46:55.016Z,29.46
2022-08-11T19:49:18.039Z,29.31
2022-08-11T19:51:39.291Z,29.30
2022-08-11T19:54:00.964Z,29.31
2022-08-11T19:56:22.243Z,29.24
2022-08-11T19:58:43.843Z,29.23
2022-08-11T20:01:05.162Z,29.12
2022-08-11T20:03:28.834Z,29.12
2022-08-11T20:05:59.775Z,29.08
2022-08-11T20:08:21.187Z,29.08
2022-08-11T20:10:43.478Z,28.90
2022-08-11T20:13:04.974Z,28.83
2022-08-11T20:15:31.967Z,28.87
2022-08-11T20:17:56.682Z,28.70
2022-08-11T20:20:22.124Z,28.79
2022-08-11T20:22:45.564Z,28.80
2022-08-11T20:25:11.219Z,28.71
2022-08-11T20:27:33.284Z,28.61
2022-08-11T20:29:55.110Z,28.65
2022-08-11T20:32:17.112Z,28.61
2022-08-11T20:34:38.782Z,28.59
2022-08-11T20:37:00.229Z,28.57
2022-08-11T20:39:22.270Z,28.49
2022-08-11T20:41:58.967Z,28.56
2022-08-11T20:44:21.715Z,28.52
2022-08-11T20:46:43.952Z,28.51
2022-08-11T20:49:05.108Z,28.57
2022-08-11T20:51:26.086Z,28.54
2022-08-11T20:53:47.471Z,28.53
2022-08-11T20:56:08.881Z,28.50
2022-08-11T20:58:49.128Z,28.42
2022-08-11T21:01:20.290Z,28.41
2022-08-11T21:03:54.765Z,28.34
2022-08-11T21:06:31.636Z,28.29
2022-08-11T21:08:55.833Z,28.25
2022-08-11T21:13:58.398Z,28.17
2022-08-11T21:16:25.359Z,28.14
2022-08-11T21:18:51.046Z,28.01
2022-08-11T21:21:16.407Z,28.03
2022-08-11T21:23:37.537Z,27.95
2022-08-11T21:26:04.492Z,27.86
2022-08-11T21:28:28.515Z,27.81
2022-08-11T21:30:49.942Z,27.73
2022-08-11T21:33:11.717Z,27.69
2022-08-11T21:35:35.861Z,27.65
2022-08-11T21:38:07.376Z,27.58
2022-08-11T21:40:30.037Z,27.58
2022-08-11T21:42:55.330Z,27.56
2022-08-11T21:45:19.571Z,27.55
2022-08-11T21:47:44.302Z,27.51
2022-08-11T21:50:06.174Z,27.49
2022-08-11T21:52:27.038Z,27.50
2022-08-11T21:54:47.499Z,27.49
2022-08-11T21:57:09.019Z,27.33
2022-08-11T21:59:31.398Z,27.29
2022-08-11T22:01:51.915Z,27.20
2022-08-11T22:04:14.415Z,27.20
2022-08-11T22:06:35.864Z,27.18
2022-08-11T22:08:56.497Z,27.09
2022-08-11T22:11:16.956Z,27.12
2022-08-11T22:14:07.014Z,27.11
2022-08-11T22:16:29.059Z,27.06
2022-08-11T22:18:53.608Z,27.00
2022-08-11T22:21:56.830Z,26.96
2022-08-11T22:23:59.193Z,27.00
2022-08-11T22:26:20.836Z,26.99
2022-08-11T22:28:43.028Z,26.97
2022-08-11T22:31:03.516Z,26.92
2022-08-11T22:33:28.754Z,26.88
2022-08-11T22:35:50.664Z,26.88
2022-08-11T22:38:11.629Z,26.89
2022-08-11T22:40:33.040Z,26.83
2022-08-11T22:42:53.631Z,26.71
2022-08-11T22:45:14.677Z,26.77
2022-08-11T22:47:40.558Z,26.77
2022-08-11T22:50:01.668Z,26.67
2022-08-11T22:52:22.275Z,26.68
2022-08-11T22:54:43.399Z,26.68
2022-08-11T22:57:03.981Z,26.62
2022-08-11T22:59:25.930Z,26.63
2022-08-11T23:01:55.339Z,26.58
2022-08-11T23:04:19.762Z,26.50
2022-08-11T23:06:41.045Z,26.52
2022-08-11T23:09:01.808Z,26.51
2022-08-11T23:11:23.221Z,26.48
2022-08-11T23:13:44.907Z,26.46
2022-08-11T23:16:05.422Z,26.44
2022-08-11T23:18:26.247Z,26.43
2022-08-11T23:20:55.102Z,26.37
2022-08-11T23:23:16.397Z,26.35
2022-08-11T23:25:36.767Z,26.32
2022-08-11T23:27:57.612Z,26.15
2022-08-11T23:30:19.881Z,26.22
2022-08-11T23:32:44.506Z,26.24
2022-08-11T23:35:39.884Z,26.25
2022-08-11T23:37:55.617Z,26.19
2022-08-11T23:40:20.440Z,26.21
2022-08-11T23:42:43.430Z,26.15
2022-08-11T23:45:18.474Z,26.16
2022-08-11T23:47:50.105Z,26.12
2022-08-11T23:50:11.352Z,26.08
2022-08-11T23:52:37.566Z,26.04
2022-08-11T23:54:58.779Z,25.96
2022-08-11T23:57:18.971Z,25.93
2022-08-11T23:59:39.583Z,25.93
